sensor_id;sensor_type;location;lat;lon;timestamp;P1;durP1;ratioP1;P2;durP2;ratioP2
76155;SDS011;64906;51.290;7.348;2022-12-18T00:01:44;16.15;;;10.45;;
76155;SDS011;64906;51.290;7.348;2022-12-18T00:04:23;14.45;;;10.70;;
76155;SDS011;64906;51.290;7.348;2022-12-18T00:06:50;15.02;;;10.65;;
76155;SDS011;64906;51.290;7.348;2022-12-18T00:09:17;14.60;;;11.60;;
76155;SDS011;64906;51.290;7.348;2022-12-18T00:11:43;16.13;;;10.88;;
76155;SDS011;64906;51.290;7.348;2022-12-18T00:14:11;14.82;;;10.93;;
76155;SDS011;64906;51.290;7.348;2022-12-18T00:16:38;14.85;;;11.00;;
76155;SDS011;64906;51.290;7.348;2022-12-18T00:19:05;15.48;;;10.35;;
76155;SDS011;64906;51.290;7.348;2022-12-18T00:21:31;16.33;;;11.68;;
76155;SDS011;64906;51.290;7.348;2022-12-18T00:23:58;14.38;;;10.50;;
76155;SDS011;64906;51.290;7.348;2022-12-18T00:26:26;16.63;;;11.45;;
76155;SDS011;64906;51.290;7.348;2022-12-18T00:28:54;17.17;;;10.77;;
76155;SDS011;64906;51.290;7.348;2022-12-18T00:31:23;14.60;;;10.57;;
76155;SDS011;64906;51.290;7.348;2022-12-18T00:33:50;14.02;;;10.25;;
76155;SDS011;64906;51.290;7.348;2022-12-18T00:36:20;14.82;;;10.30;;
76155;SDS011;64906;51.290;7.348;2022-12-18T00:38:48;15.85;;;10.80;;
76155;SDS011;64906;51.290;7.348;2022-12-18T00:41:14;15.95;;;10.50;;
76155;SDS011;64906;51.290;7.348;2022-12-18T00:44:02;17.38;;;11.07;;
76155;SDS011;64906;51.290;7.348;2022-12-18T00:46:28;16.17;;;10.57;;
76155;SDS011;64906;51.290;7.348;2022-12-18T00:48:54;14.75;;;9.93;;
76155;SDS011;64906;51.290;7.348;2022-12-18T00:51:20;14.38;;;10.38;;
76155;SDS011;64906;51.290;7.348;2022-12-18T00:53:45;15.52;;;11.00;;
76155;SDS011;64906;51.290;7.348;2022-12-18T00:56:11;15.55;;;11.13;;
76155;SDS011;64906;51.290;7.348;2022-12-18T00:58:37;18.75;;;10.68;;
76155;SDS011;64906;51.290;7.348;2022-12-18T01:01:06;14.88;;;10.38;;
76155;SDS011;64906;51.290;7.348;2022-12-18T01:03:32;16.42;;;10.85;;
76155;SDS011;64906;51.290;7.348;2022-12-18T01:05:58;15.23;;;10.38;;
76155;SDS011;64906;51.290;7.348;2022-12-18T01:08:24;16.40;;;10.40;;
76155;SDS011;64906;51.290;7.348;2022-12-18T01:10:50;15.48;;;10.90;;
76155;SDS011;64906;51.290;7.348;2022-12-18T01:13:16;15.13;;;10.20;;
76155;SDS011;64906;51.290;7.348;2022-12-18T01:15:51;15.50;;;10.45;;
76155;SDS011;64906;51.290;7.348;2022-12-18T01:18:17;15.40;;;10.68;;
76155;SDS011;64906;51.290;7.348;2022-12-18T01:20:43;15.65;;;10.18;;
76155;SDS011;64906;51.290;7.348;2022-12-18T01:23:08;15.70;;;10.43;;
76155;SDS011;64906;51.290;7.348;2022-12-18T01:25:37;16.40;;;10.82;;
76155;SDS011;64906;51.290;7.348;2022-12-18T01:28:03;15.85;;;10.60;;
76155;SDS011;64906;51.290;7.348;2022-12-18T01:30:29;15.77;;;10.15;;
76155;SDS011;64906;51.290;7.348;2022-12-18T01:32:55;14.65;;;10.63;;
76155;SDS011;64906;51.290;7.348;2022-12-18T01:35:21;15.93;;;10.55;;
76155;SDS011;64906;51.290;7.348;2022-12-18T01:37:47;15.80;;;10.48;;
76155;SDS011;64906;51.290;7.348;2022-12-18T01:40:14;16.83;;;10.57;;
76155;SDS011;64906;51.290;7.348;2022-12-18T01:42:40;14.65;;;10.68;;
76155;SDS011;64906;51.290;7.348;2022-12-18T01:45:20;15.65;;;11.13;;
76155;SDS011;64906;51.290;7.348;2022-12-18T01:48:06;15.25;;;10.27;;
76155;SDS011;64906;51.290;7.348;2022-12-18T01:50:38;18.02;;;11.52;;
76155;SDS011;64906;51.290;7.348;2022-12-18T01:53:10;15.93;;;10.90;;
76155;SDS011;64906;51.290;7.348;2022-12-18T01:55:43;15.23;;;10.50;;
76155;SDS011;64906;51.290;7.348;2022-12-18T01:58:15;24.38;;;10.20;;
76155;SDS011;64906;51.290;7.348;2022-12-18T02:00:43;15.07;;;10.30;;
76155;SDS011;64906;51.290;7.348;2022-12-18T02:03:09;18.05;;;10.50;;
76155;SDS011;64906;51.290;7.348;2022-12-18T02:08:25;14.48;;;10.35;;
76155;SDS011;64906;51.290;7.348;2022-12-18T02:17:06;16.30;;;10.60;;
76155;SDS011;64906;51.290;7.348;2022-12-18T02:22:45;15.93;;;10.73;;
76155;SDS011;64906;51.290;7.348;2022-12-18T02:25:33;15.07;;;10.18;;
76155;SDS011;64906;51.290;7.348;2022-12-18T02:28:23;15.13;;;9.85;;
76155;SDS011;64906;51.290;7.348;2022-12-18T02:33:48;15.45;;;9.90;;
76155;SDS011;64906;51.290;7.348;2022-12-18T02:36:16;17.25;;;11.30;;
76155;SDS011;64906;51.290;7.348;2022-12-18T02:38:45;16.00;;;10.25;;
76155;SDS011;64906;51.290;7.348;2022-12-18T02:41:12;15.70;;;10.10;;
76155;SDS011;64906;51.290;7.348;2022-12-18T02:43:40;13.80;;;10.02;;
76155;SDS011;64906;51.290;7.348;2022-12-18T02:48:57;14.10;;;9.25;;
76155;SDS011;64906;51.290;7.348;2022-12-18T02:54:31;14.65;;;10.40;;
76155;SDS011;64906;51.290;7.348;2022-12-18T03:00:16;15.13;;;9.52;;
76155;SDS011;64906;51.290;7.348;2022-12-18T03:05:31;12.48;;;9.15;;
76155;SDS011;64906;51.290;7.348;2022-12-18T03:08:07;14.77;;;9.82;;
76155;SDS011;64906;51.290;7.348;2022-12-18T03:10:39;12.85;;;9.18;;
76155;SDS011;64906;51.290;7.348;2022-12-18T03:13:15;12.75;;;8.63;;
76155;SDS011;64906;51.290;7.348;2022-12-18T03:15:57;11.77;;;8.52;;
76155;SDS011;64906;51.290;7.348;2022-12-18T03:18:27;11.60;;;8.13;;
76155;SDS011;64906;51.290;7.348;2022-12-18T03:21:00;11.90;;;8.90;;
76155;SDS011;64906;51.290;7.348;2022-12-18T03:23:32;11.63;;;7.97;;
76155;SDS011;64906;51.290;7.348;2022-12-18T03:26:09;12.23;;;9.13;;
76155;SDS011;64906;51.290;7.348;2022-12-18T03:28:40;12.27;;;8.25;;
76155;SDS011;64906;51.290;7.348;2022-12-18T03:31:11;11.70;;;8.50;;
76155;SDS011;64906;51.290;7.348;2022-12-18T03:33:55;11.35;;;8.30;;
76155;SDS011;64906;51.290;7.348;2022-12-18T03:36:25;11.18;;;7.95;;
76155;SDS011;64906;51.290;7.348;2022-12-18T03:38:51;10.32;;;7.10;;
76155;SDS011;64906;51.290;7.348;2022-12-18T03:44:03;11.52;;;7.60;;
76155;SDS011;64906;51.290;7.348;2022-12-18T03:52:24;10.73;;;7.05;;
76155;SDS011;64906;51.290;7.348;2022-12-18T03:55:14;10.35;;;6.97;;
76155;SDS011;64906;51.290;7.348;2022-12-18T03:57:42;10.70;;;6.57;;
76155;SDS011;64906;51.290;7.348;2022-12-18T04:00:10;9.60;;;7.25;;
76155;SDS011;64906;51.290;7.348;2022-12-18T04:02:39;10.88;;;7.45;;
76155;SDS011;64906;51.290;7.348;2022-12-18T04:07:36;9.65;;;6.40;;
76155;SDS011;64906;51.290;7.348;2022-12-18T04:10:03;9.57;;;6.85;;
76155;SDS011;64906;51.290;7.348;2022-12-18T04:12:32;9.48;;;6.50;;
76155;SDS011;64906;51.290;7.348;2022-12-18T04:14:58;11.23;;;7.40;;
76155;SDS011;64906;51.290;7.348;2022-12-18T04:17:24;9.90;;;6.20;;
76155;SDS011;64906;51.290;7.348;2022-12-18T04:19:50;9.25;;;6.43;;
76155;SDS011;64906;51.290;7.348;2022-12-18T04:22:16;9.70;;;6.50;;
76155;SDS011;64906;51.290;7.348;2022-12-18T04:24:42;9.93;;;6.10;;
76155;SDS011;64906;51.290;7.348;2022-12-18T04:27:07;8.85;;;6.45;;
76155;SDS011;64906;51.290;7.348;2022-12-18T04:29:33;8.18;;;5.78;;
76155;SDS011;64906;51.290;7.348;2022-12-18T04:31:59;8.90;;;6.03;;
76155;SDS011;64906;51.290;7.348;2022-12-18T04:34:25;8.65;;;6.10;;
76155;SDS011;64906;51.290;7.348;2022-12-18T04:36:51;8.77;;;6.10;;
76155;SDS011;64906;51.290;7.348;2022-12-18T04:39:16;8.23;;;5.88;;
76155;SDS011;64906;51.290;7.348;2022-12-18T04:41:42;7.75;;;5.50;;
76155;SDS011;64906;51.290;7.348;2022-12-18T04:44:08;9.30;;;5.60;;
76155;SDS011;64906;51.290;7.348;2022-12-18T04:46:34;7.97;;;5.75;;
76155;SDS011;64906;51.290;7.348;2022-12-18T04:49:00;7.70;;;5.43;;
76155;SDS011;64906;51.290;7.348;2022-12-18T04:51:26;8.05;;;5.15;;
76155;SDS011;64906;51.290;7.348;2022-12-18T04:53:52;10.40;;;5.78;;
76155;SDS011;64906;51.290;7.348;2022-12-18T04:56:18;7.55;;;5.40;;
76155;SDS011;64906;51.290;7.348;2022-12-18T04:58:44;7.03;;;4.90;;
76155;SDS011;64906;51.290;7.348;2022-12-18T05:01:11;7.82;;;5.28;;
76155;SDS011;64906;51.290;7.348;2022-12-18T05:03:38;7.63;;;5.30;;
76155;SDS011;64906;51.290;7.348;2022-12-18T05:06:05;7.60;;;5.15;;
76155;SDS011;64906;51.290;7.348;2022-12-18T05:08:32;7.63;;;5.07;;
76155;SDS011;64906;51.290;7.348;2022-12-18T05:10:59;7.10;;;4.82;;
76155;SDS011;64906;51.290;7.348;2022-12-18T05:13:25;7.90;;;5.22;;
76155;SDS011;64906;51.290;7.348;2022-12-18T05:15:53;7.28;;;5.05;;
76155;SDS011;64906;51.290;7.348;2022-12-18T05:18:19;6.50;;;4.53;;
76155;SDS011;64906;51.290;7.348;2022-12-18T05:20:46;6.68;;;4.68;;
76155;SDS011;64906;51.290;7.348;2022-12-18T05:23:12;7.88;;;4.78;;
76155;SDS011;64906;51.290;7.348;2022-12-18T05:25:38;6.30;;;4.43;;
76155;SDS011;64906;51.290;7.348;2022-12-18T05:28:04;6.82;;;4.53;;
76155;SDS011;64906;51.290;7.348;2022-12-18T05:30:30;6.72;;;4.72;;
76155;SDS011;64906;51.290;7.348;2022-12-18T05:32:55;7.03;;;4.50;;
76155;SDS011;64906;51.290;7.348;2022-12-18T05:35:21;6.85;;;4.55;;
76155;SDS011;64906;51.290;7.348;2022-12-18T05:37:47;6.90;;;4.88;;
76155;SDS011;64906;51.290;7.348;2022-12-18T05:40:13;6.30;;;4.03;;
76155;SDS011;64906;51.290;7.348;2022-12-18T05:42:39;7.15;;;4.20;;
76155;SDS011;64906;51.290;7.348;2022-12-18T05:45:05;7.25;;;4.18;;
76155;SDS011;64906;51.290;7.348;2022-12-18T05:47:31;5.80;;;4.10;;
76155;SDS011;64906;51.290;7.348;2022-12-18T05:49:57;6.82;;;4.07;;
76155;SDS011;64906;51.290;7.348;2022-12-18T05:52:23;6.15;;;4.20;;
76155;SDS011;64906;51.290;7.348;2022-12-18T05:54:49;6.43;;;4.47;;
76155;SDS011;64906;51.290;7.348;2022-12-18T05:57:16;6.60;;;4.63;;
76155;SDS011;64906;51.290;7.348;2022-12-18T05:59:41;6.78;;;4.57;;
76155;SDS011;64906;51.290;7.348;2022-12-18T06:02:07;5.57;;;4.03;;
76155;SDS011;64906;51.290;7.348;2022-12-18T06:04:33;6.68;;;4.18;;
76155;SDS011;64906;51.290;7.348;2022-12-18T06:06:59;5.55;;;3.80;;
76155;SDS011;64906;51.290;7.348;2022-12-18T06:09:31;6.30;;;4.32;;
76155;SDS011;64906;51.290;7.348;2022-12-18T06:11:57;6.75;;;4.10;;
76155;SDS011;64906;51.290;7.348;2022-12-18T06:14:23;12.50;;;4.47;;
76155;SDS011;64906;51.290;7.348;2022-12-18T06:16:50;5.85;;;4.00;;
76155;SDS011;64906;51.290;7.348;2022-12-18T06:19:17;7.85;;;5.20;;
76155;SDS011;64906;51.290;7.348;2022-12-18T06:21:43;5.90;;;4.20;;
76155;SDS011;64906;51.290;7.348;2022-12-18T06:24:09;7.70;;;3.83;;
76155;SDS011;64906;51.290;7.348;2022-12-18T06:26:38;8.70;;;3.60;;
76155;SDS011;64906;51.290;7.348;2022-12-18T06:29:05;8.18;;;3.72;;
76155;SDS011;64906;51.290;7.348;2022-12-18T06:31:31;8.25;;;4.03;;
76155;SDS011;64906;51.290;7.348;2022-12-18T06:33:57;6.25;;;3.60;;
76155;SDS011;64906;51.290;7.348;2022-12-18T06:36:23;5.97;;;3.60;;
76155;SDS011;64906;51.290;7.348;2022-12-18T06:38:49;5.07;;;3.50;;
76155;SDS011;64906;51.290;7.348;2022-12-18T06:41:16;5.93;;;3.83;;
76155;SDS011;64906;51.290;7.348;2022-12-18T06:43:45;5.88;;;3.72;;
76155;SDS011;64906;51.290;7.348;2022-12-18T06:46:11;6.78;;;3.55;;
76155;SDS011;64906;51.290;7.348;2022-12-18T06:48:38;5.60;;;3.70;;
76155;SDS011;64906;51.290;7.348;2022-12-18T06:51:05;5.43;;;3.53;;
76155;SDS011;64906;51.290;7.348;2022-12-18T06:53:31;6.18;;;3.55;;
76155;SDS011;64906;51.290;7.348;2022-12-18T06:56:02;5.57;;;3.72;;
76155;SDS011;64906;51.290;7.348;2022-12-18T06:58:28;5.28;;;3.30;;
76155;SDS011;64906;51.290;7.348;2022-12-18T07:00:59;6.18;;;3.88;;
76155;SDS011;64906;51.290;7.348;2022-12-18T07:03:26;5.88;;;3.42;;
76155;SDS011;64906;51.290;7.348;2022-12-18T07:05:52;6.22;;;3.50;;
76155;SDS011;64906;51.290;7.348;2022-12-18T07:08:18;5.22;;;3.63;;
76155;SDS011;64906;51.290;7.348;2022-12-18T07:10:44;5.00;;;3.60;;
76155;SDS011;64906;51.290;7.348;2022-12-18T07:13:10;5.78;;;3.50;;
76155;SDS011;64906;51.290;7.348;2022-12-18T07:15:36;5.22;;;3.33;;
76155;SDS011;64906;51.290;7.348;2022-12-18T07:18:02;5.50;;;3.20;;
76155;SDS011;64906;51.290;7.348;2022-12-18T07:20:28;5.43;;;3.15;;
76155;SDS011;64906;51.290;7.348;2022-12-18T07:22:54;5.10;;;3.38;;
76155;SDS011;64906;51.290;7.348;2022-12-18T07:25:20;10.65;;;3.08;;
76155;SDS011;64906;51.290;7.348;2022-12-18T07:27:46;5.55;;;3.50;;
76155;SDS011;64906;51.290;7.348;2022-12-18T07:30:12;5.40;;;3.20;;
76155;SDS011;64906;51.290;7.348;2022-12-18T07:32:38;4.75;;;3.15;;
76155;SDS011;64906;51.290;7.348;2022-12-18T07:35:04;5.05;;;3.25;;
76155;SDS011;64906;51.290;7.348;2022-12-18T07:37:29;5.28;;;3.30;;
76155;SDS011;64906;51.290;7.348;2022-12-18T07:39:55;6.53;;;3.25;;
76155;SDS011;64906;51.290;7.348;2022-12-18T07:42:22;9.45;;;4.50;;
76155;SDS011;64906;51.290;7.348;2022-12-18T07:45:00;6.78;;;3.95;;
76155;SDS011;64906;51.290;7.348;2022-12-18T07:47:28;6.63;;;4.28;;
76155;SDS011;64906;51.290;7.348;2022-12-18T07:49:57;6.10;;;4.20;;
76155;SDS011;64906;51.290;7.348;2022-12-18T07:52:23;7.45;;;5.13;;
76155;SDS011;64906;51.290;7.348;2022-12-18T07:54:48;7.63;;;4.72;;
76155;SDS011;64906;51.290;7.348;2022-12-18T07:57:15;7.03;;;4.30;;
76155;SDS011;64906;51.290;7.348;2022-12-18T07:59:42;6.78;;;5.38;;
76155;SDS011;64906;51.290;7.348;2022-12-18T08:02:08;7.18;;;5.80;;
76155;SDS011;64906;51.290;7.348;2022-12-18T08:04:34;7.07;;;4.50;;
76155;SDS011;64906;51.290;7.348;2022-12-18T08:07:00;7.25;;;5.22;;
76155;SDS011;64906;51.290;7.348;2022-12-18T08:09:26;9.43;;;6.47;;
76155;SDS011;64906;51.290;7.348;2022-12-18T08:11:52;8.25;;;6.20;;
76155;SDS011;64906;51.290;7.348;2022-12-18T08:14:18;8.45;;;5.25;;
76155;SDS011;64906;51.290;7.348;2022-12-18T08:16:43;8.43;;;5.50;;
76155;SDS011;64906;51.290;7.348;2022-12-18T08:19:09;8.95;;;6.32;;
76155;SDS011;64906;51.290;7.348;2022-12-18T08:21:35;9.20;;;7.43;;
76155;SDS011;64906;51.290;7.348;2022-12-18T08:24:02;9.18;;;6.30;;
76155;SDS011;64906;51.290;7.348;2022-12-18T08:26:29;8.13;;;5.55;;
76155;SDS011;64906;51.290;7.348;2022-12-18T08:28:56;11.02;;;7.32;;
76155;SDS011;64906;51.290;7.348;2022-12-18T08:31:24;13.95;;;10.80;;
76155;SDS011;64906;51.290;7.348;2022-12-18T08:33:51;18.30;;;12.88;;
76155;SDS011;64906;51.290;7.348;2022-12-18T08:36:18;17.48;;;13.15;;
76155;SDS011;64906;51.290;7.348;2022-12-18T08:38:44;19.88;;;13.27;;
76155;SDS011;64906;51.290;7.348;2022-12-18T08:41:11;20.63;;;15.98;;
76155;SDS011;64906;51.290;7.348;2022-12-18T08:43:39;24.23;;;17.98;;
76155;SDS011;64906;51.290;7.348;2022-12-18T08:46:25;23.15;;;18.52;;
76155;SDS011;64906;51.290;7.348;2022-12-18T08:48:52;27.58;;;22.45;;
76155;SDS011;64906;51.290;7.348;2022-12-18T08:51:19;30.40;;;25.20;;
76155;SDS011;64906;51.290;7.348;2022-12-18T08:53:46;32.58;;;27.23;;
76155;SDS011;64906;51.290;7.348;2022-12-18T08:56:12;37.75;;;30.98;;
76155;SDS011;64906;51.290;7.348;2022-12-18T08:58:39;37.25;;;28.95;;
76155;SDS011;64906;51.290;7.348;2022-12-18T09:01:06;38.47;;;28.80;;
76155;SDS011;64906;51.290;7.348;2022-12-18T09:03:34;33.78;;;25.48;;
76155;SDS011;64906;51.290;7.348;2022-12-18T09:06:00;39.08;;;30.20;;
76155;SDS011;64906;51.290;7.348;2022-12-18T09:08:27;37.20;;;29.40;;
76155;SDS011;64906;51.290;7.348;2022-12-18T09:10:53;40.80;;;30.77;;
76155;SDS011;64906;51.290;7.348;2022-12-18T09:13:19;36.05;;;28.17;;
76155;SDS011;64906;51.290;7.348;2022-12-18T09:15:46;44.75;;;30.08;;
76155;SDS011;64906;51.290;7.348;2022-12-18T09:18:15;58.78;;;24.05;;
76155;SDS011;64906;51.290;7.348;2022-12-18T09:20:42;53.65;;;26.05;;
76155;SDS011;64906;51.290;7.348;2022-12-18T09:23:09;71.18;;;41.15;;
76155;SDS011;64906;51.290;7.348;2022-12-18T09:25:35;135.15;;;83.60;;
76155;SDS011;64906;51.290;7.348;2022-12-18T09:28:02;109.70;;;74.25;;
76155;SDS011;64906;51.290;7.348;2022-12-18T09:30:32;94.97;;;64.05;;
76155;SDS011;64906;51.290;7.348;2022-12-18T09:33:01;86.97;;;57.50;;
76155;SDS011;64906;51.290;7.348;2022-12-18T09:35:26;83.22;;;52.63;;
76155;SDS011;64906;51.290;7.348;2022-12-18T09:37:53;87.47;;;54.85;;
76155;SDS011;64906;51.290;7.348;2022-12-18T09:40:20;76.90;;;51.75;;
76155;SDS011;64906;51.290;7.348;2022-12-18T09:42:50;75.68;;;47.53;;
76155;SDS011;64906;51.290;7.348;2022-12-18T09:45:21;72.90;;;44.88;;
76155;SDS011;64906;51.290;7.348;2022-12-18T09:47:49;76.30;;;44.85;;
76155;SDS011;64906;51.290;7.348;2022-12-18T09:50:29;107.03;;;79.07;;
76155;SDS011;64906;51.290;7.348;2022-12-18T09:52:59;115.03;;;89.47;;
76155;SDS011;64906;51.290;7.348;2022-12-18T09:55:42;121.00;;;83.28;;
76155;SDS011;64906;51.290;7.348;2022-12-18T09:58:19;125.13;;;93.60;;
76155;SDS011;64906;51.290;7.348;2022-12-18T10:00:55;90.70;;;64.70;;
76155;SDS011;64906;51.290;7.348;2022-12-18T10:03:21;70.85;;;50.22;;
76155;SDS011;64906;51.290;7.348;2022-12-18T10:05:56;80.38;;;59.28;;
76155;SDS011;64906;51.290;7.348;2022-12-18T10:14:13;64.72;;;43.15;;
76155;SDS011;64906;51.290;7.348;2022-12-18T10:19:36;31.48;;;20.42;;
76155;SDS011;64906;51.290;7.348;2022-12-18T10:28:20;16.10;;;9.50;;
76155;SDS011;64906;51.290;7.348;2022-12-18T10:30:48;18.10;;;8.05;;
76155;SDS011;64906;51.290;7.348;2022-12-18T10:33:15;16.10;;;7.60;;
76155;SDS011;64906;51.290;7.348;2022-12-18T10:35:43;16.02;;;6.65;;
76155;SDS011;64906;51.290;7.348;2022-12-18T10:43:29;16.65;;;4.95;;
76155;SDS011;64906;51.290;7.348;2022-12-18T10:46:04;12.23;;;5.45;;
76155;SDS011;64906;51.290;7.348;2022-12-18T10:48:35;20.55;;;6.40;;
76155;SDS011;64906;51.290;7.348;2022-12-18T10:51:06;15.40;;;6.93;;
76155;SDS011;64906;51.290;7.348;2022-12-18T10:53:33;16.92;;;11.43;;
76155;SDS011;64906;51.290;7.348;2022-12-18T10:56:02;27.48;;;18.02;;
76155;SDS011;64906;51.290;7.348;2022-12-18T10:58:30;45.45;;;28.20;;
76155;SDS011;64906;51.290;7.348;2022-12-18T11:03:33;51.22;;;28.92;;
76155;SDS011;64906;51.290;7.348;2022-12-18T11:06:04;48.92;;;29.25;;
76155;SDS011;64906;51.290;7.348;2022-12-18T11:08:32;49.13;;;28.08;;
76155;SDS011;64906;51.290;7.348;2022-12-18T11:10:58;49.10;;;28.85;;
76155;SDS011;64906;51.290;7.348;2022-12-18T11:13:25;43.33;;;28.50;;
76155;SDS011;64906;51.290;7.348;2022-12-18T11:15:53;49.05;;;28.42;;
76155;SDS011;64906;51.290;7.348;2022-12-18T11:18:22;48.20;;;26.63;;
76155;SDS011;64906;51.290;7.348;2022-12-18T11:21:10;42.83;;;26.20;;
76155;SDS011;64906;51.290;7.348;2022-12-18T11:23:37;45.70;;;26.15;;
76155;SDS011;64906;51.290;7.348;2022-12-18T11:26:12;45.33;;;25.52;;
76155;SDS011;64906;51.290;7.348;2022-12-18T11:28:40;38.10;;;24.85;;
76155;SDS011;64906;51.290;7.348;2022-12-18T11:36:38;36.80;;;24.13;;
76155;SDS011;64906;51.290;7.348;2022-12-18T11:44:59;34.53;;;22.58;;
76155;SDS011;64906;51.290;7.348;2022-12-18T11:48:06;33.38;;;21.33;;
76155;SDS011;64906;51.290;7.348;2022-12-18T11:50:54;35.58;;;20.98;;
76155;SDS011;64906;51.290;7.348;2022-12-18T11:53:22;33.70;;;21.90;;
76155;SDS011;64906;51.290;7.348;2022-12-18T11:55:56;31.05;;;20.92;;
76155;SDS011;64906;51.290;7.348;2022-12-18T11:58:33;31.17;;;20.88;;
76155;SDS011;64906;51.290;7.348;2022-12-18T12:03:58;34.72;;;21.45;;
76155;SDS011;64906;51.290;7.348;2022-12-18T12:09:38;26.23;;;18.20;;
76155;SDS011;64906;51.290;7.348;2022-12-18T12:20:17;18.35;;;11.77;;
76155;SDS011;64906;51.290;7.348;2022-12-18T12:22:55;20.60;;;11.85;;
76155;SDS011;64906;51.290;7.348;2022-12-18T12:25:55;18.10;;;11.55;;
76155;SDS011;64906;51.290;7.348;2022-12-18T12:29:13;17.17;;;11.05;;
76155;SDS011;64906;51.290;7.348;2022-12-18T12:31:34;15.63;;;11.15;;
76155;SDS011;64906;51.290;7.348;2022-12-18T12:39:36;16.52;;;9.48;;
76155;SDS011;64906;51.290;7.348;2022-12-18T12:42:05;14.13;;;9.13;;
76155;SDS011;64906;51.290;7.348;2022-12-18T12:45:05;12.38;;;9.05;;
76155;SDS011;64906;51.290;7.348;2022-12-18T12:47:33;17.88;;;8.57;;
76155;SDS011;64906;51.290;7.348;2022-12-18T12:50:04;16.67;;;9.10;;
76155;SDS011;64906;51.290;7.348;2022-12-18T12:52:38;13.90;;;8.88;;
76155;SDS011;64906;51.290;7.348;2022-12-18T12:55:12;12.85;;;8.35;;
76155;SDS011;64906;51.290;7.348;2022-12-18T12:58:00;13.70;;;7.78;;
76155;SDS011;64906;51.290;7.348;2022-12-18T13:00:30;13.77;;;8.25;;
76155;SDS011;64906;51.290;7.348;2022-12-18T13:08:27;13.80;;;7.68;;
76155;SDS011;64906;51.290;7.348;2022-12-18T13:10:58;12.30;;;7.95;;
76155;SDS011;64906;51.290;7.348;2022-12-18T13:13:50;12.10;;;7.07;;
76155;SDS011;64906;51.290;7.348;2022-12-18T13:16:21;10.07;;;6.85;;
76155;SDS011;64906;51.290;7.348;2022-12-18T13:18:49;11.40;;;7.18;;
76155;SDS011;64906;51.290;7.348;2022-12-18T13:21:21;13.00;;;6.97;;
76155;SDS011;64906;51.290;7.348;2022-12-18T13:23:52;15.23;;;7.60;;
76155;SDS011;64906;51.290;7.348;2022-12-18T13:31:13;12.38;;;7.03;;
76155;SDS011;64906;51.290;7.348;2022-12-18T13:33:43;10.88;;;6.53;;
76155;SDS011;64906;51.290;7.348;2022-12-18T13:38:38;9.80;;;6.00;;
76155;SDS011;64906;51.290;7.348;2022-12-18T13:46:18;9.95;;;6.10;;
76155;SDS011;64906;51.290;7.348;2022-12-18T13:49:17;9.85;;;5.70;;
76155;SDS011;64906;51.290;7.348;2022-12-18T13:51:53;11.52;;;5.60;;
76155;SDS011;64906;51.290;7.348;2022-12-18T13:54:36;9.05;;;5.47;;
76155;SDS011;64906;51.290;7.348;2022-12-18T13:57:22;12.07;;;5.80;;
76155;SDS011;64906;51.290;7.348;2022-12-18T13:59:54;9.55;;;6.05;;
76155;SDS011;64906;51.290;7.348;2022-12-18T14:02:22;12.63;;;6.35;;
76155;SDS011;64906;51.290;7.348;2022-12-18T14:04:50;11.07;;;6.28;;
76155;SDS011;64906;51.290;7.348;2022-12-18T14:07:17;10.30;;;7.38;;
76155;SDS011;64906;51.290;7.348;2022-12-18T14:09:57;13.93;;;6.50;;
76155;SDS011;64906;51.290;7.348;2022-12-18T14:12:31;10.35;;;6.88;;
76155;SDS011;64906;51.290;7.348;2022-12-18T14:18:02;11.60;;;7.13;;
76155;SDS011;64906;51.290;7.348;2022-12-18T14:20:39;11.30;;;6.90;;
76155;SDS011;64906;51.290;7.348;2022-12-18T14:25:59;12.38;;;7.38;;
76155;SDS011;64906;51.290;7.348;2022-12-18T14:28:28;12.15;;;7.30;;
76155;SDS011;64906;51.290;7.348;2022-12-18T14:30:54;10.18;;;7.63;;
76155;SDS011;64906;51.290;7.348;2022-12-18T14:33:22;9.65;;;7.18;;
76155;SDS011;64906;51.290;7.348;2022-12-18T14:35:58;12.98;;;8.32;;
76155;SDS011;64906;51.290;7.348;2022-12-18T14:38:27;12.77;;;7.60;;
76155;SDS011;64906;51.290;7.348;2022-12-18T14:41:17;10.55;;;7.47;;
76155;SDS011;64906;51.290;7.348;2022-12-18T14:43:45;9.68;;;7.40;;
76155;SDS011;64906;51.290;7.348;2022-12-18T14:48:54;11.05;;;7.47;;
76155;SDS011;64906;51.290;7.348;2022-12-18T14:51:21;10.77;;;7.65;;
76155;SDS011;64906;51.290;7.348;2022-12-18T14:53:57;9.55;;;7.38;;
76155;SDS011;64906;51.290;7.348;2022-12-18T14:56:31;10.27;;;7.45;;
76155;SDS011;64906;51.290;7.348;2022-12-18T14:59:02;10.57;;;7.90;;
76155;SDS011;64906;51.290;7.348;2022-12-18T15:01:37;12.85;;;8.07;;
76155;SDS011;64906;51.290;7.348;2022-12-18T15:04:26;11.05;;;7.63;;
76155;SDS011;64906;51.290;7.348;2022-12-18T15:07:04;11.75;;;7.40;;
76155;SDS011;64906;51.290;7.348;2022-12-18T15:09:34;12.13;;;7.20;;
76155;SDS011;64906;51.290;7.348;2022-12-18T15:12:01;12.25;;;7.28;;
76155;SDS011;64906;51.290;7.348;2022-12-18T15:14:40;10.15;;;7.72;;
76155;SDS011;64906;51.290;7.348;2022-12-18T15:17:14;9.13;;;7.22;;
76155;SDS011;64906;51.290;7.348;2022-12-18T15:19:43;11.18;;;7.60;;
76155;SDS011;64906;51.290;7.348;2022-12-18T15:22:21;10.48;;;7.88;;
76155;SDS011;64906;51.290;7.348;2022-12-18T15:24:52;9.05;;;7.15;;
76155;SDS011;64906;51.290;7.348;2022-12-18T15:27:21;10.85;;;7.75;;
76155;SDS011;64906;51.290;7.348;2022-12-18T15:32:33;10.98;;;7.38;;
76155;SDS011;64906;51.290;7.348;2022-12-18T15:35:07;12.50;;;7.38;;
76155;SDS011;64906;51.290;7.348;2022-12-18T15:37:40;8.88;;;7.22;;
76155;SDS011;64906;51.290;7.348;2022-12-18T15:40:07;10.45;;;7.28;;
76155;SDS011;64906;51.290;7.348;2022-12-18T15:42:37;9.95;;;6.78;;
76155;SDS011;64906;51.290;7.348;2022-12-18T15:45:21;9.18;;;7.15;;
76155;SDS011;64906;51.290;7.348;2022-12-18T15:47:47;9.68;;;7.05;;
76155;SDS011;64906;51.290;7.348;2022-12-18T15:50:12;11.30;;;7.15;;
76155;SDS011;64906;51.290;7.348;2022-12-18T15:52:40;10.93;;;7.70;;
76155;SDS011;64906;51.290;7.348;2022-12-18T15:55:16;8.75;;;6.95;;
76155;SDS011;64906;51.290;7.348;2022-12-18T15:58:03;11.32;;;7.20;;
76155;SDS011;64906;51.290;7.348;2022-12-18T16:00:29;7.88;;;6.63;;
76155;SDS011;64906;51.290;7.348;2022-12-18T16:02:56;8.55;;;7.07;;
76155;SDS011;64906;51.290;7.348;2022-12-18T16:05:22;9.15;;;6.97;;
76155;SDS011;64906;51.290;7.348;2022-12-18T16:07:49;12.35;;;6.30;;
76155;SDS011;64906;51.290;7.348;2022-12-18T16:10:15;9.05;;;6.20;;
76155;SDS011;64906;51.290;7.348;2022-12-18T16:12:41;10.65;;;7.30;;
76155;SDS011;64906;51.290;7.348;2022-12-18T16:15:09;9.77;;;7.40;;
76155;SDS011;64906;51.290;7.348;2022-12-18T16:17:39;9.30;;;6.97;;
76155;SDS011;64906;51.290;7.348;2022-12-18T16:20:06;9.20;;;6.63;;
76155;SDS011;64906;51.290;7.348;2022-12-18T16:22:42;8.32;;;6.60;;
76155;SDS011;64906;51.290;7.348;2022-12-18T16:25:19;9.25;;;6.40;;
76155;SDS011;64906;51.290;7.348;2022-12-18T16:27:46;8.95;;;6.43;;
76155;SDS011;64906;51.290;7.348;2022-12-18T16:30:16;8.88;;;6.28;;
76155;SDS011;64906;51.290;7.348;2022-12-18T16:32:44;8.40;;;6.13;;
76155;SDS011;64906;51.290;7.348;2022-12-18T16:35:12;9.68;;;6.35;;
76155;SDS011;64906;51.290;7.348;2022-12-18T16:37:39;7.82;;;5.85;;
76155;SDS011;64906;51.290;7.348;2022-12-18T16:40:07;8.20;;;5.50;;
76155;SDS011;64906;51.290;7.348;2022-12-18T16:42:35;8.40;;;6.22;;
76155;SDS011;64906;51.290;7.348;2022-12-18T16:45:02;8.57;;;6.35;;
76155;SDS011;64906;51.290;7.348;2022-12-18T16:47:29;8.73;;;6.28;;
76155;SDS011;64906;51.290;7.348;2022-12-18T16:49:55;8.00;;;6.30;;
76155;SDS011;64906;51.290;7.348;2022-12-18T16:52:21;8.70;;;6.00;;